Time;durP1;ratioP1;P1;durP2;ratioP2;P2;SDS_P1;SDS_P2;PMS_P1;PMS_P2;Temp;Humidity;BMP_temperature;BMP_pressure;BME280_temperature;BME280_humidity;BME280_pressure;Samples;Min_cycle;Max_cycle;Signal;HPM_P1;HPM_P2
2021/10/10 00:00:59;;;;;;;13.07;9.35;;;14.60;83.80;;;;;;5093664;28;20032;-66
2021/10/10 00:03:25;;;;;;;12.98;10.35;;;14.60;83.50;;;;;;5093309;28;20032;-61
2021/10/10 00:05:52;;;;;;;13.35;9.55;;;14.60;83.50;;;;;;5093082;28;20031;-66
2021/10/10 00:08:18;;;;;;;13.43;8.10;;;14.60;83.20;;;;;;5091865;28;20494;-67
2021/10/10 00:10:45;;;;;;;14.35;8.75;;;14.60;83.20;;;;;;5092831;28;20040;-68
2021/10/10 00:13:11;;;;;;;10.98;8.95;;;14.60;83.10;;;;;;5092601;28;20035;-66
2021/10/10 00:15:38;;;;;;;12.27;9.57;;;14.60;83.30;;;;;;5092949;28;20035;-59
2021/10/10 00:18:04;;;;;;;12.05;8.65;;;14.60;83.40;;;;;;5092677;28;20028;-66
2021/10/10 00:20:31;;;;;;;11.98;8.98;;;14.60;83.50;;;;;;5091181;28;20036;-66
2021/10/10 00:22:57;;;;;;;12.68;8.82;;;14.60;83.70;;;;;;5091282;28;20036;-68
2021/10/10 00:25:24;;;;;;;12.27;9.57;;;14.60;83.60;;;;;;5090203;28;20039;-67
2021/10/10 00:27:50;;;;;;;14.45;9.00;;;14.60;83.90;;;;;;5091657;28;20032;-65
2021/10/10 00:30:19;;;;;;;10.70;8.63;;;14.60;83.90;;;;;;5090268;28;20573;-67
2021/10/10 00:32:45;;;;;;;13.13;8.60;;;14.60;84.00;;;;;;5090497;28;20483;-67
2021/10/10 00:35:14;;;;;;;10.73;8.25;;;14.60;84.30;;;;;;5091390;28;20028;-66
2021/10/10 00:37:41;;;;;;;12.60;8.65;;;14.60;84.60;;;;;;5073380;28;20666;-65
2021/10/10 00:40:08;;;;;;;11.85;8.27;;;14.60;84.80;;;;;;5091466;28;20036;-66
2021/10/10 00:42:35;;;;;;;15.27;9.90;;;14.50;84.80;;;;;;5089316;28;20028;-67
2021/10/10 00:45:01;;;;;;;13.65;9.30;;;14.50;84.80;;;;;;5091381;28;20028;-66
2021/10/10 00:47:28;;;;;;;11.77;8.98;;;14.50;85.00;;;;;;5091721;28;20380;-67
2021/10/10 00:49:54;;;;;;;12.13;9.50;;;14.50;85.00;;;;;;5091336;28;20503;-66
2021/10/10 00:52:22;;;;;;;14.55;9.30;;;14.50;85.30;;;;;;5091536;28;20036;-67
2021/10/10 00:54:49;;;;;;;17.83;9.10;;;14.60;85.30;;;;;;5073462;28;20043;-65
2021/10/10 00:57:18;;;;;;;15.10;9.55;;;14.50;85.30;;;;;;5089128;28;20035;-67
2021/10/10 00:59:46;;;;;;;16.33;9.98;;;14.50;86.10;;;;;;5091591;28;20073;-66
2021/10/10 01:02:13;;;;;;;14.32;10.18;;;14.50;85.40;;;;;;5091527;28;20028;-67
2021/10/10 01:04:40;;;;;;;14.73;9.48;;;14.50;85.50;;;;;;5091715;28;20024;-68
2021/10/10 01:07:08;;;;;;;12.77;10.05;;;14.50;85.60;;;;;;5090694;28;20016;-67
2021/10/10 01:09:35;;;;;;;15.30;9.85;;;14.50;86.00;;;;;;5091094;28;20055;-67
2021/10/10 01:12:06;;;;;;;11.38;10.13;;;14.50;85.90;;;;;;5073062;28;20237;-68
2021/10/10 01:14:34;;;;;;;13.88;9.80;;;14.50;86.00;;;;;;5091564;28;20043;-68
2021/10/10 01:17:02;;;;;;;12.38;9.82;;;14.50;86.20;;;;;;5093300;28;20043;-67
2021/10/10 01:19:30;;;;;;;15.93;10.43;;;14.50;86.20;;;;;;5096325;28;20028;-66
2021/10/10 01:21:58;;;;;;;15.02;10.27;;;14.40;86.10;;;;;;5095235;28;20043;-68
2021/10/10 01:24:26;;;;;;;14.98;10.52;;;14.50;86.20;;;;;;5094670;28;20032;-66
2021/10/10 01:26:53;;;;;;;17.92;10.93;;;14.50;86.20;;;;;;5095123;28;20046;-66
2021/10/10 01:29:19;;;;;;;14.55;10.93;;;14.50;86.10;;;;;;5093859;28;20040;-66
2021/10/10 01:31:46;;;;;;;14.80;11.50;;;14.50;86.10;;;;;;5095487;28;20047;-66
2021/10/10 01:34:13;;;;;;;13.38;9.88;;;14.50;86.10;;;;;;5095642;28;20470;-67
2021/10/10 01:36:40;;;;;;;14.80;9.85;;;14.50;86.00;;;;;;5096412;28;20032;-68
2021/10/10 01:39:07;;;;;;;16.02;9.80;;;14.50;86.30;;;;;;5095596;28;20480;-68
2021/10/10 01:41:34;;;;;;;16.08;10.85;;;14.50;86.40;;;;;;5096530;28;20304;-69
2021/10/10 01:44:00;;;;;;;15.77;10.85;;;14.50;86.30;;;;;;5077695;28;20028;-68
2021/10/10 01:46:27;;;;;;;14.02;9.93;;;14.50;86.50;;;;;;5094896;28;20487;-67
2021/10/10 01:48:53;;;;;;;15.20;10.40;;;14.50;86.80;;;;;;5095951;28;20352;-69
2021/10/10 01:51:20;;;;;;;14.63;10.98;;;14.50;86.30;;;;;;5096001;28;20494;-67
2021/10/10 01:53:46;;;;;;;16.30;10.95;;;14.40;86.30;;;;;;5095679;28;20028;-67
2021/10/10 01:56:16;;;;;;;15.20;10.30;;;14.40;86.40;;;;;;5096357;28;20036;-67
2021/10/10 01:58:42;;;;;;;11.63;10.02;;;14.40;86.50;;;;;;5096308;28;20028;-66
2021/10/10 02:01:09;;;;;;;12.13;10.40;;;14.40;86.60;;;;;;5096041;28;20399;-67
2021/10/10 02:03:35;;;;;;;12.48;10.57;;;14.40;86.90;;;;;;5095885;28;20035;-67
2021/10/10 02:06:02;;;;;;;14.77;11.15;;;14.50;87.00;;;;;;5095705;28;20391;-67
2021/10/10 02:08:28;;;;;;;13.80;10.85;;;14.40;87.30;;;;;;5095165;28;20032;-67
2021/10/10 02:10:56;;;;;;;16.17;11.18;;;14.40;87.50;;;;;;5095552;28;20032;-68
2021/10/10 02:13:22;;;;;;;14.07;11.25;;;14.50;87.70;;;;;;5095552;28;20502;-68
2021/10/10 02:15:49;;;;;;;15.45;10.63;;;14.50;87.90;;;;;;5095355;28;20046;-67
2021/10/10 02:18:15;;;;;;;13.77;10.45;;;14.50;87.90;;;;;;5077551;28;20032;-67
2021/10/10 02:20:42;;;;;;;16.52;11.25;;;14.40;87.80;;;;;;5095407;28;20504;-65
2021/10/10 02:23:08;;;;;;;13.80;10.68;;;14.40;87.90;;;;;;5095667;28;20028;-67
2021/10/10 02:25:35;;;;;;;15.27;12.23;;;14.40;87.90;;;;;;5095269;28;20145;-67
2021/10/10 02:28:01;;;;;;;13.70;10.60;;;14.40;88.00;;;;;;5094595;28;20042;-67
2021/10/10 02:30:28;;;;;;;14.18;10.38;;;14.40;88.20;;;;;;5095423;28;20058;-68
2021/10/10 02:32:54;;;;;;;14.63;10.40;;;14.40;88.90;;;;;;5095175;28;20062;-68
2021/10/10 02:35:21;;;;;;;13.55;10.18;;;14.40;89.60;;;;;;5095399;28;20039;-68
2021/10/10 02:37:48;;;;;;;16.77;10.95;;;14.30;90.50;;;;;;5095530;28;20024;-67
2021/10/10 02:40:15;;;;;;;13.45;10.15;;;14.40;90.90;;;;;;5095365;28;20039;-68
2021/10/10 02:42:42;;;;;;;13.32;10.52;;;14.30;91.10;;;;;;5095099;28;20034;-67
2021/10/10 02:45:09;;;;;;;14.20;10.80;;;14.30;90.90;;;;;;5095234;28;20040;-68
2021/10/10 02:47:36;;;;;;;16.02;11.25;;;14.30;90.70;;;;;;5094941;28;20031;-67
2021/10/10 02:50:05;;;;;;;14.63;10.43;;;14.30;90.80;;;;;;5094820;28;20040;-67
2021/10/10 02:52:32;;;;;;;18.52;11.23;;;14.30;91.00;;;;;;5094523;28;20055;-67
2021/10/10 02:55:01;;;;;;;14.55;10.38;;;14.30;90.90;;;;;;5094957;28;20464;-67
2021/10/10 02:57:27;;;;;;;16.90;10.88;;;14.30;90.60;;;;;;5094403;28;20031;-65
2021/10/10 02:59:53;;;;;;;15.23;10.85;;;14.30;90.60;;;;;;5094825;28;20036;-68
2021/10/10 03:02:20;;;;;;;12.20;9.85;;;14.30;90.80;;;;;;5076560;28;20448;-66
2021/10/10 03:04:46;;;;;;;14.13;11.32;;;14.30;90.50;;;;;;5094066;28;20498;-67
2021/10/10 03:07:13;;;;;;;14.63;11.00;;;14.30;90.50;;;;;;5094448;28;20020;-68
2021/10/10 03:09:39;;;;;;;14.63;10.77;;;14.30;90.60;;;;;;5093969;28;20052;-68
2021/10/10 03:12:06;;;;;;;15.70;11.02;;;14.30;90.60;;;;;;5093627;28;20391;-67
2021/10/10 03:14:32;;;;;;;14.77;11.48;;;14.30;90.70;;;;;;5094185;28;20385;-67
2021/10/10 03:16:58;;;;;;;15.00;10.73;;;14.30;90.20;;;;;;5094486;28;20032;-67
2021/10/10 03:19:25;;;;;;;14.85;10.45;;;14.20;89.90;;;;;;5094040;28;20040;-68
2021/10/10 03:21:51;;;;;;;13.75;9.85;;;14.30;90.20;;;;;;5094387;28;20526;-66
2021/10/10 03:24:18;;;;;;;14.57;10.63;;;14.30;90.30;;;;;;5094181;28;20032;-69
2021/10/10 03:26:44;;;;;;;16.38;10.52;;;14.30;90.40;;;;;;5094307;28;20031;-68
2021/10/10 03:29:11;;;;;;;18.50;11.60;;;14.30;90.70;;;;;;5076206;28;20040;-67
2021/10/10 03:31:37;;;;;;;11.88;10.23;;;14.20;90.90;;;;;;5093660;28;20043;-66
2021/10/10 03:34:03;;;;;;;13.85;11.18;;;14.30;90.70;;;;;;5093609;28;20501;-68
2021/10/10 03:36:30;;;;;;;15.38;11.07;;;14.30;90.40;;;;;;5093834;28;20376;-68
2021/10/10 03:38:56;;;;;;;14.65;10.52;;;14.30;90.00;;;;;;5092647;28;20487;-68
2021/10/10 03:41:23;;;;;;;12.10;10.18;;;14.30;89.50;;;;;;5093942;28;20038;-68
2021/10/10 03:43:49;;;;;;;13.70;10.50;;;14.30;89.30;;;;;;5094094;28;20387;-68
2021/10/10 03:46:16;;;;;;;14.50;10.93;;;14.30;89.10;;;;;;5093695;28;20028;-68
2021/10/10 03:48:43;;;;;;;15.35;10.32;;;14.30;88.80;;;;;;5093948;28;20044;-68
2021/10/10 03:51:09;;;;;;;13.80;10.35;;;14.30;88.70;;;;;;5092760;28;20396;-68
2021/10/10 03:56:14;;;;;;;15.68;10.38;;;14.30;88.40;;;;;;5075390;28;20047;-68
2021/10/10 03:58:41;;;;;;;14.70;12.07;;;14.30;88.20;;;;;;5093768;28;20028;-67
2021/10/10 04:01:07;;;;;;;17.88;10.95;;;14.30;88.20;;;;;;5093240;28;20028;-67
2021/10/10 04:03:34;;;;;;;13.82;9.63;;;14.30;88.00;;;;;;5093541;28;20043;-67
2021/10/10 04:06:02;;;;;;;14.75;9.82;;;14.30;88.10;;;;;;5093666;28;20039;-67
2021/10/10 04:08:29;;;;;;;12.27;10.98;;;14.30;87.90;;;;;;5091832;28;20043;-67
2021/10/10 04:10:56;;;;;;;14.43;10.55;;;14.30;87.90;;;;;;5093609;28;20024;-67
2021/10/10 04:13:22;;;;;;;14.38;10.20;;;14.30;87.90;;;;;;5075211;28;20061;-68
2021/10/10 04:15:49;;;;;;;16.38;10.73;;;14.30;87.80;;;;;;5093359;28;20035;-67
2021/10/10 04:18:15;;;;;;;18.45;12.02;;;14.20;87.70;;;;;;5093321;28;20494;-68
2021/10/10 04:20:42;;;;;;;13.90;10.63;;;14.20;87.60;;;;;;5092228;28;20507;-68
2021/10/10 04:23:08;;;;;;;11.68;10.20;;;14.30;87.70;;;;;;5091975;28;20368;-68
2021/10/10 04:25:35;;;;;;;13.43;9.85;;;14.30;87.60;;;;;;5093144;28;20371;-68
2021/10/10 04:28:01;;;;;;;15.15;10.68;;;14.20;87.60;;;;;;5091761;28;20051;-68
2021/10/10 04:30:27;;;;;;;14.05;11.63;;;14.30;87.60;;;;;;5093523;28;20027;-69
2021/10/10 04:32:54;;;;;;;14.38;11.25;;;14.20;87.60;;;;;;5093072;28;20039;-67
2021/10/10 04:35:20;;;;;;;12.13;10.00;;;14.20;87.60;;;;;;5074407;28;20071;-68
2021/10/10 04:37:47;;;;;;;15.23;11.07;;;14.30;87.60;;;;;;5092055;28;20043;-68
2021/10/10 04:40:13;;;;;;;17.52;10.80;;;14.20;87.50;;;;;;5092435;28;20036;-68
2021/10/10 04:42:40;;;;;;;12.20;10.68;;;14.30;87.70;;;;;;5092802;28;20039;-67
2021/10/10 04:45:08;;;;;;;14.65;10.23;;;14.20;87.30;;;;;;5092776;28;20043;-68
2021/10/10 04:47:36;;;;;;;13.18;10.65;;;14.20;87.10;;;;;;5091629;28;20040;-68
2021/10/10 04:50:04;;;;;;;17.25;10.70;;;14.20;86.80;;;;;;5092385;28;20040;-67
2021/10/10 04:52:30;;;;;;;17.55;11.18;;;14.20;86.90;;;;;;5092516;28;20044;-67
2021/10/10 04:54:57;;;;;;;12.95;10.25;;;14.20;87.20;;;;;;5092577;28;20373;-68
2021/10/10 04:57:24;;;;;;;17.77;12.02;;;14.20;87.20;;;;;;5092492;28;20024;-68
2021/10/10 04:59:50;;;;;;;14.40;10.77;;;14.20;87.60;;;;;;5092364;28;20036;-68
2021/10/10 05:02:22;;;;;;;12.05;9.63;;;14.20;88.00;;;;;;5092787;28;20476;-68
2021/10/10 05:04:49;;;;;;;15.32;10.77;;;14.20;88.80;;;;;;5092341;28;20040;-67
2021/10/10 05:07:16;;;;;;;15.43;10.27;;;14.20;88.40;;;;;;5092700;28;20027;-67
2021/10/10 05:09:43;;;;;;;14.15;11.43;;;14.20;89.10;;;;;;5074073;28;20473;-69
2021/10/10 05:12:10;;;;;;;12.88;10.25;;;14.20;89.50;;;;;;5092539;28;20032;-68
2021/10/10 05:14:36;;;;;;;15.23;10.57;;;14.20;89.90;;;;;;5092596;28;20032;-67
2021/10/10 05:17:02;;;;;;;17.48;10.80;;;14.10;90.00;;;;;;5092352;28;20043;-68
2021/10/10 05:19:29;;;;;;;15.10;10.95;;;14.10;90.10;;;;;;5092356;28;20365;-64
2021/10/10 05:21:55;;;;;;;13.85;10.40;;;14.10;90.40;;;;;;5092438;28;20039;-68
2021/10/10 05:24:22;;;;;;;17.73;11.45;;;14.10;90.60;;;;;;5073624;28;20051;-67
2021/10/10 05:26:48;;;;;;;20.13;11.07;;;14.10;90.90;;;;;;5092094;28;20043;-67
2021/10/10 05:29:15;;;;;;;15.38;10.82;;;14.10;91.30;;;;;;5092367;28;20486;-67
2021/10/10 05:31:41;;;;;;;18.27;11.63;;;14.10;91.50;;;;;;5074060;28;20024;-68
2021/10/10 05:34:08;;;;;;;14.00;11.70;;;14.10;91.60;;;;;;5091554;28;20047;-67
2021/10/10 05:36:34;;;;;;;18.17;12.55;;;14.10;91.50;;;;;;5092069;28;20475;-64
2021/10/10 05:39:01;;;;;;;17.25;11.73;;;14.10;91.80;;;;;;5090528;28;20483;-66
2021/10/10 05:41:28;;;;;;;14.63;11.15;;;14.00;91.70;;;;;;5091973;28;20039;-68
2021/10/10 05:43:54;;;;;;;14.73;11.43;;;14.00;92.20;;;;;;5092271;28;20032;-67
2021/10/10 05:46:21;;;;;;;15.43;12.05;;;14.00;92.20;;;;;;5091087;28;20488;-65
2021/10/10 05:48:47;;;;;;;14.80;11.02;;;14.00;92.40;;;;;;5092102;28;20035;-67
2021/10/10 05:51:14;;;;;;;17.27;11.13;;;14.00;92.60;;;;;;5092155;28;20487;-66
2021/10/10 05:53:40;;;;;;;16.75;12.15;;;14.00;92.60;;;;;;5091750;28;20044;-68
2021/10/10 05:56:07;;;;;;;12.98;10.68;;;14.00;92.70;;;;;;5092247;28;20472;-67
2021/10/10 05:58:39;;;;;;;15.25;12.02;;;14.00;93.00;;;;;;5091925;28;20491;-67
2021/10/10 06:01:06;;;;;;;14.23;11.88;;;14.00;93.00;;;;;;5073985;28;20047;-67
2021/10/10 06:03:32;;;;;;;12.73;10.35;;;14.00;92.90;;;;;;5093646;28;20365;-66
2021/10/10 06:05:59;;;;;;;16.40;11.90;;;14.00;92.90;;;;;;5095687;28;20511;-66
2021/10/10 06:08:25;;;;;;;14.75;11.90;;;14.00;93.00;;;;;;5094946;28;20035;-67
2021/10/10 06:10:52;;;;;;;12.65;10.23;;;14.00;92.90;;;;;;5095797;28;20028;-66
2021/10/10 06:13:18;;;;;;;17.40;11.65;;;14.00;93.10;;;;;;5077244;28;20044;-67
2021/10/10 06:15:47;;;;;;;14.13;10.73;;;14.00;93.50;;;;;;5095601;28;20051;-67
2021/10/10 06:18:13;;;;;;;14.57;10.82;;;14.00;93.20;;;;;;5095387;28;20423;-67
2021/10/10 06:20:40;;;;;;;18.58;11.63;;;14.00;93.40;;;;;;5095514;28;20028;-67
2021/10/10 06:23:06;;;;;;;17.83;11.27;;;14.00;92.40;;;;;;5077442;28;20043;-66
2021/10/10 06:25:33;;;;;;;14.30;10.15;;;14.00;91.40;;;;;;5077340;28;20032;-67
2021/10/10 06:27:59;;;;;;;17.30;10.35;;;14.00;91.10;;;;;;5095557;28;20475;-68
2021/10/10 06:30:26;;;;;;;14.07;10.73;;;14.00;91.00;;;;;;5077063;28;20082;-68
2021/10/10 06:32:52;;;;;;;13.20;9.60;;;14.00;91.00;;;;;;5095388;28;20044;-68
2021/10/10 06:35:18;;;;;;;16.48;10.45;;;14.00;90.90;;;;;;5095107;28;20032;-66
2021/10/10 06:37:45;;;;;;;12.90;10.52;;;14.10;90.80;;;;;;5095285;28;20032;-66
2021/10/10 06:40:12;;;;;;;12.25;10.07;;;14.10;90.70;;;;;;5082458;28;20032;-66
2021/10/10 06:42:38;;;;;;;14.75;10.52;;;14.10;90.70;;;;;;5086067;28;20032;-67
2021/10/10 06:45:05;;;;;;;13.55;9.75;;;14.10;91.20;;;;;;5078311;28;20051;-61
2021/10/10 06:47:32;;;;;;;15.77;10.65;;;14.10;91.50;;;;;;5088945;28;20040;-67
2021/10/10 06:49:59;;;;;;;14.57;10.38;;;14.10;91.80;;;;;;5062334;28;20025;-67
2021/10/10 06:52:25;;;;;;;13.82;10.68;;;14.10;91.90;;;;;;5079149;28;20040;-67
2021/10/10 06:54:52;;;;;;;13.95;10.27;;;14.10;92.00;;;;;;5079331;28;20036;-67
2021/10/10 06:57:18;;;;;;;13.73;10.75;;;14.10;92.00;;;;;;5085651;28;20488;-67
2021/10/10 06:59:44;;;;;;;14.77;10.07;;;14.10;92.00;;;;;;5084219;28;20032;-67
2021/10/10 07:02:13;;;;;;;14.88;10.90;;;14.10;91.60;;;;;;5087369;28;20047;-67
2021/10/10 07:04:40;;;;;;;16.27;10.32;;;14.10;91.70;;;;;;5062201;28;20025;-67
2021/10/10 07:07:06;;;;;;;18.20;11.75;;;14.10;91.70;;;;;;5088322;28;20032;-62
2021/10/10 07:09:33;;;;;;;16.58;11.10;;;14.10;92.00;;;;;;5085437;28;20044;-68
2021/10/10 07:11:59;;;;;;;18.65;10.90;;;14.10;92.10;;;;;;5080086;28;20047;-67
2021/10/10 07:14:26;;;;;;;16.38;10.98;;;14.10;91.90;;;;;;5086231;28;20098;-68
2021/10/10 07:16:53;;;;;;;13.05;10.85;;;14.10;92.20;;;;;;5077647;28;20037;-67
2021/10/10 07:19:24;;;;;;;14.25;11.77;;;14.10;92.50;;;;;;5080001;28;20028;-67
2021/10/10 07:21:59;;;;;;;14.65;11.40;;;14.10;92.40;;;;;;5083767;28;20395;-68
2021/10/10 07:27:10;;;;;;;17.17;12.10;;;14.20;92.70;;;;;;5062779;28;20040;-67
2021/10/10 07:29:37;;;;;;;12.88;11.48;;;14.20;92.80;;;;;;5072968;28;20058;-67
2021/10/10 07:32:04;;;;;;;18.70;12.77;;;14.30;93.00;;;;;;5075653;28;20055;-67
2021/10/10 07:34:31;;;;;;;19.42;11.85;;;14.30;93.20;;;;;;5073725;28;20043;-67
2021/10/10 07:36:57;;;;;;;15.55;12.32;;;14.40;93.60;;;;;;5056009;28;20055;-67
2021/10/10 07:39:23;;;;;;;14.00;11.98;;;14.50;93.40;;;;;;5085693;28;20024;-66
2021/10/10 07:41:50;;;;;;;22.00;14.05;;;14.50;93.40;;;;;;5081879;28;20032;-67
2021/10/10 07:44:16;;;;;;;17.17;13.23;;;14.50;93.20;;;;;;5078538;28;20028;-67
2021/10/10 07:46:43;;;;;;;15.55;12.88;;;14.60;93.30;;;;;;5084267;28;20519;-67
2021/10/10 07:49:11;;;;;;;17.73;13.95;;;14.70;93.40;;;;;;5061964;28;20040;-67
2021/10/10 07:51:39;;;;;;;14.55;13.02;;;14.70;93.30;;;;;;5082325;28;20045;-67
2021/10/10 07:54:05;;;;;;;18.65;14.18;;;14.70;93.30;;;;;;5085988;28;20055;-67
2021/10/10 07:56:32;;;;;;;17.30;12.95;;;14.80;93.30;;;;;;5076619;28;20372;-67
2021/10/10 07:58:58;;;;;;;18.70;13.82;;;14.70;93.70;;;;;;5077623;28;20036;-67
2021/10/10 08:01:24;;;;;;;17.90;15.95;;;14.70;93.70;;;;;;5089749;28;20032;-67
2021/10/10 08:03:51;;;;;;;18.73;14.50;;;14.70;93.80;;;;;;5083869;28;20028;-68
2021/10/10 08:06:17;;;;;;;19.20;14.73;;;14.70;94.00;;;;;;5062394;28;20036;-68
2021/10/10 08:08:44;;;;;;;19.23;16.45;;;14.60;94.30;;;;;;5083622;28;20068;-67
2021/10/10 08:11:10;;;;;;;16.60;13.75;;;14.60;94.30;;;;;;5074729;28;20396;-60
2021/10/10 08:13:37;;;;;;;17.20;15.05;;;14.50;94.40;;;;;;5074929;28;20064;-66
2021/10/10 08:16:04;;;;;;;21.77;15.88;;;14.50;94.60;;;;;;5080579;28;20035;-67
2021/10/10 08:18:30;;;;;;;19.10;17.05;;;14.60;94.20;;;;;;5077574;28;20472;-67
2021/10/10 08:20:57;;;;;;;19.90;14.75;;;14.60;93.80;;;;;;5084696;28;20032;-67
2021/10/10 08:23:23;;;;;;;18.23;14.48;;;14.60;93.00;;;;;;5081210;28;20040;-67
2021/10/10 08:25:50;;;;;;;18.70;14.27;;;14.60;92.80;;;;;;5082253;28;20043;-67
2021/10/10 08:28:16;;;;;;;17.98;14.52;;;14.70;92.80;;;;;;5086750;28;20460;-67
2021/10/10 08:30:43;;;;;;;16.08;13.27;;;14.80;92.30;;;;;;5074825;28;20028;-66
2021/10/10 08:33:09;;;;;;;17.20;13.27;;;14.90;91.80;;;;;;5075908;28;20488;-67
2021/10/10 08:35:35;;;;;;;20.95;13.93;;;15.00;90.60;;;;;;5087432;28;20480;-67
2021/10/10 08:38:02;;;;;;;15.50;11.23;;;15.00;90.10;;;;;;5091721;28;20035;-67
2021/10/10 08:40:28;;;;;;;18.10;12.18;;;15.00;88.90;;;;;;5091472;28;20036;-67
2021/10/10 08:42:59;;;;;;;18.70;12.43;;;15.00;87.50;;;;;;5093279;28;20028;-67
2021/10/10 08:45:30;;;;;;;13.48;11.73;;;15.10;86.10;;;;;;5074726;28;20036;-67
2021/10/10 08:47:57;;;;;;;17.00;11.98;;;15.10;85.40;;;;;;5093115;28;20032;-67
2021/10/10 08:50:26;;;;;;;18.38;11.88;;;15.00;84.20;;;;;;5091718;28;20404;-67
2021/10/10 08:52:59;;;;;;;18.98;11.80;;;15.10;84.00;;;;;;5092639;28;20042;-67
2021/10/10 08:55:29;;;;;;;13.50;10.48;;;15.20;83.70;;;;;;5092711;28;20040;-67
2021/10/10 08:57:56;;;;;;;16.48;10.35;;;15.30;81.20;;;;;;5092867;28;20105;-67
2021/10/10 09:00:32;;;;;;;21.30;11.82;;;15.40;80.60;;;;;;5092729;28;20039;-67
2021/10/10 09:03:01;;;;;;;19.00;10.57;;;15.40;79.50;;;;;;5092848;28;20028;-67
2021/10/10 09:05:28;;;;;;;15.52;11.07;;;15.50;78.80;;;;;;5092711;28;20032;-62
2021/10/10 09:07:55;;;;;;;15.82;10.30;;;15.50;76.90;;;;;;5092298;28;20028;-65
2021/10/10 09:10:31;;;;;;;14.95;9.80;;;15.50;76.90;;;;;;5092114;28;20040;-65
2021/10/10 09:13:15;;;;;;;17.58;10.82;;;15.60;76.20;;;;;;5074467;28;20051;-67
2021/10/10 09:15:47;;;;;;;14.07;9.75;;;15.60;75.10;;;;;;5092689;28;20036;-63
2021/10/10 09:18:13;;;;;;;13.57;9.45;;;15.60;75.60;;;;;;5092458;28;20032;-66
2021/10/10 09:20:45;;;;;;;15.32;9.48;;;15.70;75.10;;;;;;5091143;28;20052;-66
2021/10/10 09:23:17;;;;;;;16.88;10.18;;;15.70;73.70;;;;;;5086162;28;20376;-65
2021/10/10 09:25:59;;;;;;;18.42;10.75;;;15.40;75.00;;;;;;5071945;28;20537;-67
2021/10/10 09:28:29;;;;;;;14.93;10.10;;;15.50;76.00;;;;;;5071879;28;20400;-66
2021/10/10 09:31:00;;;;;;;18.10;10.82;;;15.60;75.50;;;;;;5080138;28;20037;-63
2021/10/10 09:33:53;;;;;;;12.73;10.98;;;15.70;75.90;;;;;;5082830;28;20365;-64
2021/10/10 09:36:26;;;;;;;17.58;11.65;;;15.80;75.00;;;;;;5091355;28;20032;-64
2021/10/10 09:44:07;;;;;;;17.95;11.90;;;15.80;74.50;;;;;;5094122;28;20032;-66
2021/10/10 09:46:33;;;;;;;21.75;12.93;;;15.80;74.60;;;;;;5095272;28;20055;-66
2021/10/10 09:49:00;;;;;;;21.38;13.98;;;15.70;75.20;;;;;;5094998;28;20483;-65
2021/10/10 09:51:30;;;;;;;16.50;13.07;;;15.70;75.60;;;;;;5095967;28;20024;-66
2021/10/10 09:54:05;;;;;;;19.05;14.25;;;15.70;75.40;;;;;;5096172;28;20051;-66
2021/10/10 09:56:35;;;;;;;16.98;13.95;;;15.60;76.00;;;;;;5095986;28;20031;-66
2021/10/10 09:59:02;;;;;;;16.67;13.90;;;15.60;75.70;;;;;;5096000;28;20028;-66
2021/10/10 10:01:29;;;;;;;17.88;13.38;;;15.60;76.10;;;;;;5095995;28;20418;-65
2021/10/10 10:03:57;;;;;;;20.00;14.88;;;15.80;75.60;;;;;;5095745;28;20040;-65
2021/10/10 10:06:24;;;;;;;17.23;14.27;;;15.80;74.40;;;;;;5095352;28;20039;-66
2021/10/10 10:08:50;;;;;;;22.50;15.23;;;15.90;74.80;;;;;;5095592;28;20052;-65
2021/10/10 10:11:17;;;;;;;21.80;14.77;;;16.00;75.40;;;;;;5095955;28;20020;-66
2021/10/10 10:13:44;;;;;;;18.05;13.98;;;16.20;74.70;;;;;;5094713;28;20511;-65
2021/10/10 10:16:15;;;;;;;18.92;13.32;;;16.30;74.00;;;;;;5094430;28;20055;-61
2021/10/10 10:18:42;;;;;;;25.58;14.80;;;16.20;73.30;;;;;;5083706;28;20032;-70
2021/10/10 10:21:09;;;;;;;15.57;13.32;;;16.20;72.90;;;;;;5088136;28;20047;-65
2021/10/10 10:23:36;;;;;;;18.10;14.73;;;16.30;73.40;;;;;;5084169;28;20039;-70
2021/10/10 10:26:04;;;;;;;19.33;14.68;;;16.30;73.50;;;;;;5083395;28;20495;-64
2021/10/10 10:28:32;;;;;;;20.27;15.20;;;16.40;70.90;;;;;;5085026;28;20431;-65
2021/10/10 10:31:00;;;;;;;20.88;14.07;;;16.30;71.10;;;;;;5088445;28;20032;-69
2021/10/10 10:33:30;;;;;;;20.25;15.43;;;16.30;70.70;;;;;;5087963;28;20025;-66
2021/10/10 10:35:57;;;;;;;17.35;14.30;;;16.40;70.00;;;;;;5087228;28;20495;-66
2021/10/10 10:38:43;;;;;;;42.42;32.33;;;16.30;69.40;;;;;;5088460;28;20027;-66
2021/10/10 10:41:49;;;;;;;29.20;22.75;;;16.40;70.10;;;;;;5086468;28;20032;-68
2021/10/10 10:44:42;;;;;;;23.63;17.63;;;16.40;68.70;;;;;;5060203;28;20047;-71
2021/10/10 10:47:12;;;;;;;21.45;14.27;;;16.50;68.60;;;;;;5087904;28;20052;-67
2021/10/10 10:49:50;;;;;;;18.73;13.40;;;16.50;66.70;;;;;;5091241;28;20497;-68
2021/10/10 10:52:28;;;;;;;16.92;12.77;;;16.50;67.00;;;;;;5067396;28;20032;-68
2021/10/10 10:55:13;;;;;;;15.48;12.15;;;16.50;65.00;;;;;;5092001;28;20036;-68
2021/10/10 10:57:51;;;;;;;19.88;13.52;;;16.50;64.90;;;;;;5082036;28;20036;-67
2021/10/10 11:00:35;;;;;;;13.90;12.18;;;16.60;63.70;;;;;;5081437;28;20048;-70
2021/10/10 11:03:20;;;;;;;18.25;12.25;;;16.60;63.80;;;;;;5080540;28;20037;-69
2021/10/10 11:06:11;;;;;;;17.80;13.25;;;16.50;62.80;;;;;;5081465;28;20032;-68
2021/10/10 11:08:40;;;;;;;15.00;12.25;;;16.50;63.20;;;;;;5077127;28;20048;-67
2021/10/10 11:11:09;;;;;;;15.63;12.50;;;16.50;63.30;;;;;;5086375;28;20483;-67
2021/10/10 11:13:47;;;;;;;17.10;13.45;;;16.60;64.00;;;;;;5084119;28;20036;-68
2021/10/10 11:16:18;;;;;;;20.40;13.60;;;16.50;63.00;;;;;;5084704;28;20044;-68
2021/10/10 11:18:55;;;;;;;16.27;13.25;;;16.50;62.80;;;;;;5075100;28;20040;-66
2021/10/10 11:21:28;;;;;;;17.38;12.57;;;16.60;62.90;;;;;;5085529;28;20045;-65
2021/10/10 11:23:57;;;;;;;14.52;11.88;;;16.70;62.80;;;;;;5083995;28;20028;-67
2021/10/10 11:26:25;;;;;;;18.88;13.77;;;16.70;62.80;;;;;;5077072;28;20049;-63
2021/10/10 11:28:59;;;;;;;16.45;11.20;;;16.80;62.10;;;;;;5072169;28;20044;-68
2021/10/10 11:31:31;;;;;;;20.35;12.43;;;16.80;62.00;;;;;;5078141;28;20483;-68
2021/10/10 11:34:05;;;;;;;20.23;13.23;;;16.80;61.50;;;;;;5084722;28;20040;-68
2021/10/10 11:36:48;;;;;;;23.23;13.80;;;16.70;61.50;;;;;;5080251;28;20040;-68
2021/10/10 11:39:20;;;;;;;15.02;12.55;;;16.70;61.40;;;;;;5086409;28;20054;-68
2021/10/10 11:42:10;;;;;;;15.13;13.27;;;16.70;61.30;;;;;;5086501;28;20044;-68
2021/10/10 11:44:43;;;;;;;12.93;11.57;;;16.70;61.40;;;;;;5072312;28;20401;-68
2021/10/10 11:47:25;;;;;;;17.95;13.85;;;16.80;62.30;;;;;;5073070;28;20044;-68
2021/10/10 11:50:00;;;;;;;16.45;12.50;;;16.90;61.00;;;;;;5073626;28;20063;-69
2021/10/10 11:55:43;;;;;;;15.65;13.15;;;16.90;60.90;;;;;;5093079;28;20043;-67
2021/10/10 11:58:01;;;;;;;17.23;12.60;;;16.90;61.40;;;;;;5090360;28;20036;-67
2021/10/10 12:00:33;;;;;;;21.33;12.85;;;16.90;61.50;;;;;;5092343;28;20510;-67
2021/10/10 12:03:10;;;;;;;14.65;12.55;;;17.00;61.90;;;;;;5093484;28;20040;-67
2021/10/10 12:05:42;;;;;;;19.95;12.25;;;17.00;61.80;;;;;;5092276;28;20036;-67
2021/10/10 12:08:23;;;;;;;17.77;11.90;;;17.10;61.90;;;;;;5092753;28;20502;-67
2021/10/10 12:10:51;;;;;;;15.40;13.52;;;17.20;62.00;;;;;;5092893;28;20055;-67
2021/10/10 12:13:19;;;;;;;14.85;12.65;;;17.20;61.00;;;;;;5092882;28;20047;-67
2021/10/10 12:16:00;;;;;;;20.30;13.98;;;17.10;60.70;;;;;;5092964;28;20044;-69
2021/10/10 12:18:31;;;;;;;19.63;14.05;;;17.10;60.80;;;;;;5093607;28;20055;-67
2021/10/10 12:21:20;;;;;;;18.65;13.40;;;17.10;61.40;;;;;;5092289;28;20040;-61
2021/10/10 12:24:02;;;;;;;15.77;13.23;;;17.10;61.20;;;;;;5093087;28;20051;-69
2021/10/10 12:26:29;;;;;;;18.73;13.32;;;17.20;61.80;;;;;;5092293;28;20044;-67
2021/10/10 12:28:55;;;;;;;17.20;14.13;;;17.20;61.60;;;;;;5092942;28;20044;-67
2021/10/10 12:31:23;;;;;;;19.65;14.48;;;17.30;61.20;;;;;;5092600;28;20048;-67
2021/10/10 12:34:07;;;;;;;19.00;14.95;;;17.20;60.80;;;;;;5092637;28;20036;-68
2021/10/10 12:36:43;;;;;;;16.60;13.93;;;17.20;61.10;;;;;;5092948;28;20126;-69
2021/10/10 12:39:10;;;;;;;18.90;14.60;;;17.20;60.90;;;;;;5092191;28;20040;-70
2021/10/10 12:41:36;;;;;;;21.60;14.27;;;17.20;61.10;;;;;;5074263;28;20028;-71
2021/10/10 12:44:03;;;;;;;17.02;13.23;;;17.30;61.20;;;;;;5093112;28;20024;-68
2021/10/10 12:46:51;;;;;;;20.15;15.05;;;17.30;60.60;;;;;;5092120;28;20031;-63
2021/10/10 12:49:38;;;;;;;20.10;15.30;;;17.20;60.80;;;;;;5070176;28;20040;-68